Terminal Aerodrome Forecast
Issued by NWS

Home | Current Version | Previous Version | Text Only | Print | Product List | Glossary On
Versions: 1 2 3 4 5 6 7 8 9 10 11 12 13 14 15 16
000
FTAK31 PAFA 181809 AAA
TAFAOT
TAF AMD
PAOT 181809Z 1818/1918 13014KT P6SM OVC017
     FM182100 12018G28KT 6SM -SN BLSN BR SCT003 BKN015 OVC025
     FM190000 12033G43KT 1/2SM SN BLSN SCT003 OVC009
     FM190600 12042G52KT 1/4SM SN BLSN OVC003=

USA.gov is the U.S. government's official web portal to all federal, state and local government web resources and services.